Chesley, Canada
Current Conditions -  °F | °C
As of 2:00 PM on Thursday 18 Dec 2014 (Local Time) from CYVV Reporting Station
Light Snow Light Snow  
Wind Chill: 17°   Ceiling: 1500
Heat Index: 25°   Visibility: 12mi
Dew Point: 19°   Wind: 7mph
Humidity: 80%   Direction: 330°NNW
Pressure: 30.11"   Gusts: NA
Location:  44.3°N, 81.1°W
Report Text: CYVV 181900Z 33006KT 300V020 12SM -SN OVC015 M04/M07 A3011 RMK SC8 SLP208
Loading
Personal Weather Stations






























Interactive Weather Map New forecast layout! Learn more

10-Day Weather Forecast

Advertisements
Track Severe Weather on mobile